sensor_id;sensor_type;location;lat;lon;timestamp;temperature;humidity
72952;HTU21D;61102;51.956;5.878;2022-08-19T00:01:33;23.01;54.55
72952;HTU21D;61102;51.956;5.878;2022-08-19T00:04:02;22.69;55.33
72952;HTU21D;61102;51.956;5.878;2022-08-19T00:06:29;22.58;55.64
72952;HTU21D;61102;51.956;5.878;2022-08-19T00:08:56;22.51;55.78
72952;HTU21D;61102;51.956;5.878;2022-08-19T00:11:23;22.48;56.06
72952;HTU21D;61102;51.956;5.878;2022-08-19T00:13:49;22.44;56.07
72952;HTU21D;61102;51.956;5.878;2022-08-19T00:16:17;22.39;56.31
72952;HTU21D;61102;51.956;5.878;2022-08-19T00:18:47;22.39;56.34
72952;HTU21D;61102;51.956;5.878;2022-08-19T00:21:13;22.36;56.16
72952;HTU21D;61102;51.956;5.878;2022-08-19T00:23:41;22.31;56.16
72952;HTU21D;61102;51.956;5.878;2022-08-19T00:26:09;22.25;56.07
72952;HTU21D;61102;51.956;5.878;2022-08-19T00:28:36;22.22;56.21
72952;HTU21D;61102;51.956;5.878;2022-08-19T00:31:04;22.21;56.00
72952;HTU21D;61102;51.956;5.878;2022-08-19T00:33:31;22.20;56.27
72952;HTU21D;61102;51.956;5.878;2022-08-19T00:36:01;22.18;56.65
72952;HTU21D;61102;51.956;5.878;2022-08-19T00:38:28;22.18;56.69
72952;HTU21D;61102;51.956;5.878;2022-08-19T00:40:55;22.12;56.52
72952;HTU21D;61102;51.956;5.878;2022-08-19T00:43:24;22.08;56.63
72952;HTU21D;61102;51.956;5.878;2022-08-19T00:45:52;22.09;56.82
72952;HTU21D;61102;51.956;5.878;2022-08-19T00:48:18;22.07;56.75
72952;HTU21D;61102;51.956;5.878;2022-08-19T00:50:45;22.04;56.87
72952;HTU21D;61102;51.956;5.878;2022-08-19T00:53:14;22.02;56.75
72952;HTU21D;61102;51.956;5.878;2022-08-19T00:55:42;21.99;56.87
72952;HTU21D;61102;51.956;5.878;2022-08-19T00:58:13;21.99;56.93
72952;HTU21D;61102;51.956;5.878;2022-08-19T01:00:40;22.01;56.71
72952;HTU21D;61102;51.956;5.878;2022-08-19T01:03:10;21.97;56.66
72952;HTU21D;61102;51.956;5.878;2022-08-19T01:05:39;21.96;56.75
72952;HTU21D;61102;51.956;5.878;2022-08-19T01:08:07;21.97;56.65
72952;HTU21D;61102;51.956;5.878;2022-08-19T01:10:40;21.96;56.90
72952;HTU21D;61102;51.956;5.878;2022-08-19T01:13:07;21.93;56.75
72952;HTU21D;61102;51.956;5.878;2022-08-19T01:15:40;21.87;57.12
72952;HTU21D;61102;51.956;5.878;2022-08-19T01:18:09;22.32;55.34
72952;HTU21D;61102;51.956;5.878;2022-08-19T01:20:35;22.03;56.58
72952;HTU21D;61102;51.956;5.878;2022-08-19T01:23:02;21.90;56.87
72952;HTU21D;61102;51.956;5.878;2022-08-19T01:25:38;21.81;56.96
72952;HTU21D;61102;51.956;5.878;2022-08-19T01:28:05;21.77;57.06
72952;HTU21D;61102;51.956;5.878;2022-08-19T01:30:33;21.72;57.29
72952;HTU21D;61102;51.956;5.878;2022-08-19T01:33:01;21.73;57.14
72952;HTU21D;61102;51.956;5.878;2022-08-19T01:35:28;22.16;55.54
72952;HTU21D;61102;51.956;5.878;2022-08-19T01:37:58;21.84;56.32
72952;HTU21D;61102;51.956;5.878;2022-08-19T01:40:28;21.70;56.80
72952;HTU21D;61102;51.956;5.878;2022-08-19T01:42:55;21.62;57.07
72952;HTU21D;61102;51.956;5.878;2022-08-19T01:45:23;21.59;57.46
72952;HTU21D;61102;51.956;5.878;2022-08-19T01:47:49;21.60;57.26
72952;HTU21D;61102;51.956;5.878;2022-08-19T01:50:16;21.57;57.38
72952;HTU21D;61102;51.956;5.878;2022-08-19T01:52:43;21.55;57.32
72952;HTU21D;61102;51.956;5.878;2022-08-19T01:55:14;21.55;57.35
72952;HTU21D;61102;51.956;5.878;2022-08-19T01:57:49;21.55;56.77
72952;HTU21D;61102;51.956;5.878;2022-08-19T02:00:18;21.51;56.87
72952;HTU21D;61102;51.956;5.878;2022-08-19T02:02:44;21.52;56.68
72952;HTU21D;61102;51.956;5.878;2022-08-19T02:05:12;21.49;57.06
72952;HTU21D;61102;51.956;5.878;2022-08-19T02:07:40;21.58;57.02
72952;HTU21D;61102;51.956;5.878;2022-08-19T02:10:10;21.69;56.90
72952;HTU21D;61102;51.956;5.878;2022-08-19T02:12:36;21.81;56.61
72952;HTU21D;61102;51.956;5.878;2022-08-19T02:15:03;21.90;56.59
72952;HTU21D;61102;51.956;5.878;2022-08-19T02:17:30;22.02;56.61
72952;HTU21D;61102;51.956;5.878;2022-08-19T02:19:56;22.08;56.74
72952;HTU21D;61102;51.956;5.878;2022-08-19T02:22:23;22.11;56.84
72952;HTU21D;61102;51.956;5.878;2022-08-19T02:24:55;22.16;56.84
72952;HTU21D;61102;51.956;5.878;2022-08-19T02:27:22;22.14;56.64
72952;HTU21D;61102;51.956;5.878;2022-08-19T02:29:50;22.12;56.83
72952;HTU21D;61102;51.956;5.878;2022-08-19T02:32:17;22.12;56.92
72952;HTU21D;61102;51.956;5.878;2022-08-19T02:34:44;22.11;56.82
72952;HTU21D;61102;51.956;5.878;2022-08-19T02:37:10;22.06;56.97
72952;HTU21D;61102;51.956;5.878;2022-08-19T02:39:57;22.06;56.91
72952;HTU21D;61102;51.956;5.878;2022-08-19T02:42:23;21.99;57.00
72952;HTU21D;61102;51.956;5.878;2022-08-19T02:44:49;21.94;57.02
72952;HTU21D;61102;51.956;5.878;2022-08-19T02:47:15;21.92;57.35
72952;HTU21D;61102;51.956;5.878;2022-08-19T02:49:41;21.91;57.48
72952;HTU21D;61102;51.956;5.878;2022-08-19T02:52:07;21.89;57.11
72952;HTU21D;61102;51.956;5.878;2022-08-19T02:54:33;21.84;57.32
72952;HTU21D;61102;51.956;5.878;2022-08-19T02:57:00;21.79;57.38
72952;HTU21D;61102;51.956;5.878;2022-08-19T02:59:29;21.74;57.58
72952;HTU21D;61102;51.956;5.878;2022-08-19T03:01:55;21.72;57.32
72952;HTU21D;61102;51.956;5.878;2022-08-19T03:04:22;21.65;57.52
72952;HTU21D;61102;51.956;5.878;2022-08-19T03:06:49;21.63;57.55
72952;HTU21D;61102;51.956;5.878;2022-08-19T03:09:16;21.58;57.80
72952;HTU21D;61102;51.956;5.878;2022-08-19T03:11:42;21.54;57.87
72952;HTU21D;61102;51.956;5.878;2022-08-19T03:14:09;21.49;57.87
72952;HTU21D;61102;51.956;5.878;2022-08-19T03:16:50;21.46;58.16
72952;HTU21D;61102;51.956;5.878;2022-08-19T03:19:19;21.44;57.74
72952;HTU21D;61102;51.956;5.878;2022-08-19T03:21:47;21.37;57.96
72952;HTU21D;61102;51.956;5.878;2022-08-19T03:24:14;21.34;57.83
72952;HTU21D;61102;51.956;5.878;2022-08-19T03:26:46;21.29;57.87
72952;HTU21D;61102;51.956;5.878;2022-08-19T03:29:14;21.30;58.24
72952;HTU21D;61102;51.956;5.878;2022-08-19T03:31:41;21.28;58.26
72952;HTU21D;61102;51.956;5.878;2022-08-19T03:34:13;21.23;58.10
72952;HTU21D;61102;51.956;5.878;2022-08-19T03:36:40;21.24;58.15
72952;HTU21D;61102;51.956;5.878;2022-08-19T03:39:06;21.19;58.22
72952;HTU21D;61102;51.956;5.878;2022-08-19T03:41:38;21.18;58.56
72952;HTU21D;61102;51.956;5.878;2022-08-19T03:44:04;21.16;58.27
72952;HTU21D;61102;51.956;5.878;2022-08-19T03:46:31;21.13;58.59
72952;HTU21D;61102;51.956;5.878;2022-08-19T03:49:00;21.11;58.60
72952;HTU21D;61102;51.956;5.878;2022-08-19T03:51:29;21.11;58.48
72952;HTU21D;61102;51.956;5.878;2022-08-19T03:53:58;21.13;58.30
72952;HTU21D;61102;51.956;5.878;2022-08-19T03:56:26;21.11;58.38
72952;HTU21D;61102;51.956;5.878;2022-08-19T03:58:54;21.11;58.50
72952;HTU21D;61102;51.956;5.878;2022-08-19T04:01:23;21.15;58.27
72952;HTU21D;61102;51.956;5.878;2022-08-19T04:03:50;21.19;58.35
72952;HTU21D;61102;51.956;5.878;2022-08-19T04:06:21;21.22;58.48
72952;HTU21D;61102;51.956;5.878;2022-08-19T04:08:50;21.25;58.49
72952;HTU21D;61102;51.956;5.878;2022-08-19T04:11:25;21.25;58.51
72952;HTU21D;61102;51.956;5.878;2022-08-19T04:13:52;21.23;58.54
72952;HTU21D;61102;51.956;5.878;2022-08-19T04:16:19;21.65;56.97
72952;HTU21D;61102;51.956;5.878;2022-08-19T04:18:46;21.31;58.03
72952;HTU21D;61102;51.956;5.878;2022-08-19T04:21:18;21.19;58.49
72952;HTU21D;61102;51.956;5.878;2022-08-19T04:23:45;21.11;58.55
72952;HTU21D;61102;51.956;5.878;2022-08-19T04:26:16;21.08;58.51
72952;HTU21D;61102;51.956;5.878;2022-08-19T04:28:43;21.05;58.64
72952;HTU21D;61102;51.956;5.878;2022-08-19T04:31:15;21.04;58.54
72952;HTU21D;61102;51.956;5.878;2022-08-19T04:33:41;21.03;58.29
72952;HTU21D;61102;51.956;5.878;2022-08-19T04:36:08;21.00;58.41
72952;HTU21D;61102;51.956;5.878;2022-08-19T04:38:35;20.99;58.77
72952;HTU21D;61102;51.956;5.878;2022-08-19T04:41:02;20.93;58.90
72952;HTU21D;61102;51.956;5.878;2022-08-19T04:43:47;20.93;58.77
72952;HTU21D;61102;51.956;5.878;2022-08-19T04:46:14;20.91;59.01
72952;HTU21D;61102;51.956;5.878;2022-08-19T04:48:40;20.89;59.18
72952;HTU21D;61102;51.956;5.878;2022-08-19T04:51:09;20.84;59.36
72952;HTU21D;61102;51.956;5.878;2022-08-19T04:53:37;20.81;59.44
72952;HTU21D;61102;51.956;5.878;2022-08-19T04:56:12;20.80;59.34
72952;HTU21D;61102;51.956;5.878;2022-08-19T04:58:40;20.83;59.22
72952;HTU21D;61102;51.956;5.878;2022-08-19T05:01:24;20.86;58.83
72952;HTU21D;61102;51.956;5.878;2022-08-19T05:03:50;20.87;59.12
72952;HTU21D;61102;51.956;5.878;2022-08-19T05:06:19;20.87;59.19
72952;HTU21D;61102;51.956;5.878;2022-08-19T05:08:45;20.89;59.17
72952;HTU21D;61102;51.956;5.878;2022-08-19T05:11:37;20.94;59.00
72952;HTU21D;61102;51.956;5.878;2022-08-19T05:14:05;20.93;59.03
72952;HTU21D;61102;51.956;5.878;2022-08-19T05:16:31;20.95;59.22
72952;HTU21D;61102;51.956;5.878;2022-08-19T05:18:57;20.99;59.14
72952;HTU21D;61102;51.956;5.878;2022-08-19T05:21:42;21.06;59.16
72952;HTU21D;61102;51.956;5.878;2022-08-19T05:24:28;21.17;59.06
72952;HTU21D;61102;51.956;5.878;2022-08-19T05:26:55;21.25;58.93
72952;HTU21D;61102;51.956;5.878;2022-08-19T05:29:26;21.35;59.01
72952;HTU21D;61102;51.956;5.878;2022-08-19T05:31:53;21.47;59.01
72952;HTU21D;61102;51.956;5.878;2022-08-19T05:34:20;21.57;59.21
72952;HTU21D;61102;51.956;5.878;2022-08-19T05:36:49;21.68;59.20
72952;HTU21D;61102;51.956;5.878;2022-08-19T05:39:18;21.84;58.93
72952;HTU21D;61102;51.956;5.878;2022-08-19T05:41:48;21.98;58.90
72952;HTU21D;61102;51.956;5.878;2022-08-19T05:44:15;22.14;58.72
72952;HTU21D;61102;51.956;5.878;2022-08-19T05:46:43;22.24;58.58
72952;HTU21D;61102;51.956;5.878;2022-08-19T05:49:09;22.41;58.54
72952;HTU21D;61102;51.956;5.878;2022-08-19T05:51:36;22.52;58.61
72952;HTU21D;61102;51.956;5.878;2022-08-19T05:54:04;22.67;58.48
72952;HTU21D;61102;51.956;5.878;2022-08-19T05:56:31;22.80;58.29
72952;HTU21D;61102;51.956;5.878;2022-08-19T05:58:58;22.91;58.22
72952;HTU21D;61102;51.956;5.878;2022-08-19T06:01:26;23.00;58.16
72952;HTU21D;61102;51.956;5.878;2022-08-19T06:03:52;23.12;58.08
72952;HTU21D;61102;51.956;5.878;2022-08-19T06:06:18;23.25;57.99
72952;HTU21D;61102;51.956;5.878;2022-08-19T06:08:44;23.32;58.03
72952;HTU21D;61102;51.956;5.878;2022-08-19T06:13:42;23.51;57.93
72952;HTU21D;61102;51.956;5.878;2022-08-19T06:16:08;23.60;57.89
72952;HTU21D;61102;51.956;5.878;2022-08-19T06:18:34;23.69;57.75
72952;HTU21D;61102;51.956;5.878;2022-08-19T06:21:00;23.80;57.63
72952;HTU21D;61102;51.956;5.878;2022-08-19T06:23:32;23.90;57.40
72952;HTU21D;61102;51.956;5.878;2022-08-19T06:26:00;23.98;57.31
72952;HTU21D;61102;51.956;5.878;2022-08-19T06:28:26;24.57;55.74
72952;HTU21D;61102;51.956;5.878;2022-08-19T06:30:52;24.38;56.38
72952;HTU21D;61102;51.956;5.878;2022-08-19T06:33:18;24.33;56.70
72952;HTU21D;61102;51.956;5.878;2022-08-19T06:35:44;24.41;56.77
72952;HTU21D;61102;51.956;5.878;2022-08-19T06:38:10;24.57;56.54
72952;HTU21D;61102;51.956;5.878;2022-08-19T06:40:36;24.69;56.39
72952;HTU21D;61102;51.956;5.878;2022-08-19T06:43:03;24.78;56.31
72952;HTU21D;61102;51.956;5.878;2022-08-19T06:45:29;24.82;56.19
72952;HTU21D;61102;51.956;5.878;2022-08-19T06:47:56;24.80;56.37
72952;HTU21D;61102;51.956;5.878;2022-08-19T06:50:23;24.78;56.52
72952;HTU21D;61102;51.956;5.878;2022-08-19T06:52:49;24.79;56.40
72952;HTU21D;61102;51.956;5.878;2022-08-19T06:55:15;24.75;56.55
72952;HTU21D;61102;51.956;5.878;2022-08-19T06:57:42;24.76;56.58
72952;HTU21D;61102;51.956;5.878;2022-08-19T07:00:09;24.82;56.74
72952;HTU21D;61102;51.956;5.878;2022-08-19T07:02:42;24.86;56.69
72952;HTU21D;61102;51.956;5.878;2022-08-19T07:05:08;24.91;56.57
72952;HTU21D;61102;51.956;5.878;2022-08-19T07:07:35;24.93;56.56
72952;HTU21D;61102;51.956;5.878;2022-08-19T07:10:02;24.92;56.54
72952;HTU21D;61102;51.956;5.878;2022-08-19T07:12:30;24.92;56.56
72952;HTU21D;61102;51.956;5.878;2022-08-19T07:15:00;24.94;56.28
72952;HTU21D;61102;51.956;5.878;2022-08-19T07:17:27;24.89;56.40
72952;HTU21D;61102;51.956;5.878;2022-08-19T07:19:53;24.90;56.45
72952;HTU21D;61102;51.956;5.878;2022-08-19T07:22:21;24.94;56.43
72952;HTU21D;61102;51.956;5.878;2022-08-19T07:24:48;25.01;56.01
72952;HTU21D;61102;51.956;5.878;2022-08-19T07:27:14;25.00;56.07
72952;HTU21D;61102;51.956;5.878;2022-08-19T07:29:40;25.04;55.95
72952;HTU21D;61102;51.956;5.878;2022-08-19T07:32:06;25.16;55.72
72952;HTU21D;61102;51.956;5.878;2022-08-19T07:34:33;25.30;55.36
72952;HTU21D;61102;51.956;5.878;2022-08-19T07:37:04;25.42;55.29
72952;HTU21D;61102;51.956;5.878;2022-08-19T07:39:34;25.52;54.97
72952;HTU21D;61102;51.956;5.878;2022-08-19T07:42:03;25.56;54.70
72952;HTU21D;61102;51.956;5.878;2022-08-19T07:44:29;25.58;54.67
72952;HTU21D;61102;51.956;5.878;2022-08-19T07:46:56;25.63;54.49
72952;HTU21D;61102;51.956;5.878;2022-08-19T07:49:23;25.71;54.46
72952;HTU21D;61102;51.956;5.878;2022-08-19T07:51:54;25.75;54.42
72952;HTU21D;61102;51.956;5.878;2022-08-19T07:54:22;25.81;54.30
72952;HTU21D;61102;51.956;5.878;2022-08-19T07:56:48;25.91;54.13
72952;HTU21D;61102;51.956;5.878;2022-08-19T07:59:17;25.92;54.07
72952;HTU21D;61102;51.956;5.878;2022-08-19T08:01:45;25.96;53.95
72952;HTU21D;61102;51.956;5.878;2022-08-19T08:04:11;26.02;53.83
72952;HTU21D;61102;51.956;5.878;2022-08-19T08:06:55;26.12;53.60
72952;HTU21D;61102;51.956;5.878;2022-08-19T08:09:42;26.27;53.10
72952;HTU21D;61102;51.956;5.878;2022-08-19T08:12:16;26.47;52.58
72952;HTU21D;61102;51.956;5.878;2022-08-19T08:14:51;26.76;52.32
72952;HTU21D;61102;51.956;5.878;2022-08-19T08:17:19;27.08;51.80
72952;HTU21D;61102;51.956;5.878;2022-08-19T08:19:46;27.24;51.11
72952;HTU21D;61102;51.956;5.878;2022-08-19T08:22:15;27.27;51.13
72952;HTU21D;61102;51.956;5.878;2022-08-19T08:25:17;27.46;50.83
72952;HTU21D;61102;51.956;5.878;2022-08-19T08:27:45;27.52;49.89
72952;HTU21D;61102;51.956;5.878;2022-08-19T08:30:21;27.47;49.92
72952;HTU21D;61102;51.956;5.878;2022-08-19T08:32:48;27.46;49.69
72952;HTU21D;61102;51.956;5.878;2022-08-19T08:35:17;27.45;49.40
72952;HTU21D;61102;51.956;5.878;2022-08-19T08:37:44;27.50;49.47
72952;HTU21D;61102;51.956;5.878;2022-08-19T08:40:33;27.49;48.99
72952;HTU21D;61102;51.956;5.878;2022-08-19T08:43:09;27.58;48.88
72952;HTU21D;61102;51.956;5.878;2022-08-19T08:45:44;27.68;48.66
72952;HTU21D;61102;51.956;5.878;2022-08-19T08:48:27;27.82;48.55
72952;HTU21D;61102;51.956;5.878;2022-08-19T08:51:02;28.01;48.51
72952;HTU21D;61102;51.956;5.878;2022-08-19T08:53:30;28.19;47.86
72952;HTU21D;61102;51.956;5.878;2022-08-19T08:55:58;28.31;47.53
72952;HTU21D;61102;51.956;5.878;2022-08-19T08:58:31;28.48;47.41
72952;HTU21D;61102;51.956;5.878;2022-08-19T09:00:58;28.64;46.64
72952;HTU21D;61102;51.956;5.878;2022-08-19T09:03:26;28.67;46.70
72952;HTU21D;61102;51.956;5.878;2022-08-19T09:06:02;28.77;46.64
72952;HTU21D;61102;51.956;5.878;2022-08-19T09:08:38;28.95;46.29
72952;HTU21D;61102;51.956;5.878;2022-08-19T09:11:09;29.13;46.05
72952;HTU21D;61102;51.956;5.878;2022-08-19T09:13:44;29.34;45.68
72952;HTU21D;61102;51.956;5.878;2022-08-19T09:16:18;29.56;45.61
72952;HTU21D;61102;51.956;5.878;2022-08-19T09:18:52;29.83;44.74
72952;HTU21D;61102;51.956;5.878;2022-08-19T09:21:22;30.11;44.38
72952;HTU21D;61102;51.956;5.878;2022-08-19T09:23:49;30.24;44.29
72952;HTU21D;61102;51.956;5.878;2022-08-19T09:26:18;30.37;43.89
72952;HTU21D;61102;51.956;5.878;2022-08-19T09:28:47;30.42;43.54
72952;HTU21D;61102;51.956;5.878;2022-08-19T09:31:19;30.40;43.71
72952;HTU21D;61102;51.956;5.878;2022-08-19T09:33:47;30.41;42.90
72952;HTU21D;61102;51.956;5.878;2022-08-19T09:36:15;30.36;43.35
72952;HTU21D;61102;51.956;5.878;2022-08-19T09:38:41;30.44;43.19
72952;HTU21D;61102;51.956;5.878;2022-08-19T09:41:13;30.33;43.08
72952;HTU21D;61102;51.956;5.878;2022-08-19T09:43:41;30.27;43.02
72952;HTU21D;61102;51.956;5.878;2022-08-19T09:46:09;30.26;43.24
72952;HTU21D;61102;51.956;5.878;2022-08-19T09:48:36;30.23;43.00
72952;HTU21D;61102;51.956;5.878;2022-08-19T09:51:13;30.19;43.13
72952;HTU21D;61102;51.956;5.878;2022-08-19T09:53:44;30.16;42.41
72952;HTU21D;61102;51.956;5.878;2022-08-19T09:56:10;30.07;41.87
72952;HTU21D;61102;51.956;5.878;2022-08-19T09:58:37;30.01;42.20
72952;HTU21D;61102;51.956;5.878;2022-08-19T10:01:05;30.01;42.61
72952;HTU21D;61102;51.956;5.878;2022-08-19T10:03:32;30.07;42.51
72952;HTU21D;61102;51.956;5.878;2022-08-19T10:06:01;30.17;42.13
72952;HTU21D;61102;51.956;5.878;2022-08-19T10:08:30;30.24;42.40
72952;HTU21D;61102;51.956;5.878;2022-08-19T10:10:57;30.33;42.31
72952;HTU21D;61102;51.956;5.878;2022-08-19T10:13:24;30.77;41.62
72952;HTU21D;61102;51.956;5.878;2022-08-19T10:15:53;30.54;41.84
72952;HTU21D;61102;51.956;5.878;2022-08-19T10:18:21;30.49;41.78
72952;HTU21D;61102;51.956;5.878;2022-08-19T10:20:48;30.51;41.96
72952;HTU21D;61102;51.956;5.878;2022-08-19T10:23:15;30.51;41.82
72952;HTU21D;61102;51.956;5.878;2022-08-19T10:25:41;30.57;41.74
72952;HTU21D;61102;51.956;5.878;2022-08-19T10:28:09;30.65;41.71
72952;HTU21D;61102;51.956;5.878;2022-08-19T10:30:38;30.69;41.51
72952;HTU21D;61102;51.956;5.878;2022-08-19T10:33:05;30.65;41.52
72952;HTU21D;61102;51.956;5.878;2022-08-19T10:35:32;31.10;40.60
72952;HTU21D;61102;51.956;5.878;2022-08-19T10:37:58;31.00;40.65
72952;HTU21D;61102;51.956;5.878;2022-08-19T10:40:26;31.01;40.46
72952;HTU21D;61102;51.956;5.878;2022-08-19T10:42:53;31.08;39.64
72952;HTU21D;61102;51.956;5.878;2022-08-19T10:45:21;31.11;39.97
72952;HTU21D;61102;51.956;5.878;2022-08-19T10:47:54;31.23;38.98
72952;HTU21D;61102;51.956;5.878;2022-08-19T10:50:21;31.31;37.85
72952;HTU21D;61102;51.956;5.878;2022-08-19T10:53:07;31.19;38.59
72952;HTU21D;61102;51.956;5.878;2022-08-19T10:55:34;31.28;38.79
72952;HTU21D;61102;51.956;5.878;2022-08-19T10:58:20;31.46;38.75
72952;HTU21D;61102;51.956;5.878;2022-08-19T11:00:53;31.50;39.19
72952;HTU21D;61102;51.956;5.878;2022-08-19T11:03:20;31.64;39.01
72952;HTU21D;61102;51.956;5.878;2022-08-19T11:05:46;31.72;39.20
72952;HTU21D;61102;51.956;5.878;2022-08-19T11:08:12;31.57;39.36
72952;HTU21D;61102;51.956;5.878;2022-08-19T11:10:41;31.57;39.00
72952;HTU21D;61102;51.956;5.878;2022-08-19T11:13:08;31.66;37.69
72952;HTU21D;61102;51.956;5.878;2022-08-19T11:15:34;31.67;37.60
72952;HTU21D;61102;51.956;5.878;2022-08-19T11:18:00;31.78;37.88
72952;HTU21D;61102;51.956;5.878;2022-08-19T11:20:26;31.84;38.44
72952;HTU21D;61102;51.956;5.878;2022-08-19T11:22:52;31.85;37.52
72952;HTU21D;61102;51.956;5.878;2022-08-19T11:25:19;31.98;37.99
72952;HTU21D;61102;51.956;5.878;2022-08-19T11:27:45;32.09;37.88
72952;HTU21D;61102;51.956;5.878;2022-08-19T11:30:12;32.20;37.47
72952;HTU21D;61102;51.956;5.878;2022-08-19T11:32:42;32.19;37.49
72952;HTU21D;61102;51.956;5.878;2022-08-19T11:35:08;32.22;37.53
72952;HTU21D;61102;51.956;5.878;2022-08-19T11:37:38;32.11;37.61
72952;HTU21D;61102;51.956;5.878;2022-08-19T11:40:06;32.10;37.39
72952;HTU21D;61102;51.956;5.878;2022-08-19T11:42:32;32.17;37.21
72952;HTU21D;61102;51.956;5.878;2022-08-19T11:45:16;32.17;37.23
72952;HTU21D;61102;51.956;5.878;2022-08-19T11:47:42;32.31;37.32
72952;HTU21D;61102;51.956;5.878;2022-08-19T11:50:09;32.39;37.82
72952;HTU21D;61102;51.956;5.878;2022-08-19T11:52:35;32.60;37.37
72952;HTU21D;61102;51.956;5.878;2022-08-19T11:55:02;32.82;36.13
72952;HTU21D;61102;51.956;5.878;2022-08-19T11:57:28;32.92;36.38
72952;HTU21D;61102;51.956;5.878;2022-08-19T11:59:54;33.08;36.31
72952;HTU21D;61102;51.956;5.878;2022-08-19T12:02:20;33.21;35.49
72952;HTU21D;61102;51.956;5.878;2022-08-19T12:04:47;33.26;34.79
72952;HTU21D;61102;51.956;5.878;2022-08-19T12:07:13;33.40;34.99
72952;HTU21D;61102;51.956;5.878;2022-08-19T12:09:39;33.61;34.51
72952;HTU21D;61102;51.956;5.878;2022-08-19T12:12:06;33.81;33.79
72952;HTU21D;61102;51.956;5.878;2022-08-19T12:14:32;33.92;33.14
72952;HTU21D;61102;51.956;5.878;2022-08-19T12:16:58;34.09;33.68
72952;HTU21D;61102;51.956;5.878;2022-08-19T12:19:24;34.32;33.41
72952;HTU21D;61102;51.956;5.878;2022-08-19T12:21:51;34.56;33.35
72952;HTU21D;61102;51.956;5.878;2022-08-19T12:24:18;34.76;32.56
72952;HTU21D;61102;51.956;5.878;2022-08-19T12:26:49;34.90;32.55
72952;HTU21D;61102;51.956;5.878;2022-08-19T12:29:15;34.88;32.90
72952;HTU21D;61102;51.956;5.878;2022-08-19T12:31:41;35.01;32.04
72952;HTU21D;61102;51.956;5.878;2022-08-19T12:34:07;35.16;31.99
72952;HTU21D;61102;51.956;5.878;2022-08-19T12:36:33;35.39;32.22
72952;HTU21D;61102;51.956;5.878;2022-08-19T12:38:59;35.63;32.04
72952;HTU21D;61102;51.956;5.878;2022-08-19T12:41:26;35.80;31.92
72952;HTU21D;61102;51.956;5.878;2022-08-19T12:43:51;36.39;31.08
72952;HTU21D;61102;51.956;5.878;2022-08-19T12:46:19;36.28;30.26
72952;HTU21D;61102;51.956;5.878;2022-08-19T12:48:45;36.21;30.16
72952;HTU21D;61102;51.956;5.878;2022-08-19T12:51:17;35.97;29.74
72952;HTU21D;61102;51.956;5.878;2022-08-19T12:53:46;35.96;29.96
72952;HTU21D;61102;51.956;5.878;2022-08-19T12:56:13;36.11;29.11
72952;HTU21D;61102;51.956;5.878;2022-08-19T12:58:41;36.21;29.31
72952;HTU21D;61102;51.956;5.878;2022-08-19T13:01:10;36.11;29.43
72952;HTU21D;61102;51.956;5.878;2022-08-19T13:03:37;36.26;29.13
72952;HTU21D;61102;51.956;5.878;2022-08-19T13:06:03;36.40;29.27
72952;HTU21D;61102;51.956;5.878;2022-08-19T13:08:29;36.72;28.66
72952;HTU21D;61102;51.956;5.878;2022-08-19T13:10:55;36.83;28.61
72952;HTU21D;61102;51.956;5.878;2022-08-19T13:13:21;36.74;29.58
72952;HTU21D;61102;51.956;5.878;2022-08-19T13:15:47;37.06;29.17
72952;HTU21D;61102;51.956;5.878;2022-08-19T13:18:13;37.16;28.30
72952;HTU21D;61102;51.956;5.878;2022-08-19T13:20:40;37.18;27.69
72952;HTU21D;61102;51.956;5.878;2022-08-19T13:23:09;37.45;27.84
72952;HTU21D;61102;51.956;5.878;2022-08-19T13:25:35;37.85;27.07
72952;HTU21D;61102;51.956;5.878;2022-08-19T13:28:02;38.06;26.49
72952;HTU21D;61102;51.956;5.878;2022-08-19T13:30:28;38.36;26.20
72952;HTU21D;61102;51.956;5.878;2022-08-19T13:33:13;38.61;26.32
72952;HTU21D;61102;51.956;5.878;2022-08-19T13:35:57;38.75;24.96
72952;HTU21D;61102;51.956;5.878;2022-08-19T13:38:24;38.59;25.27
72952;HTU21D;61102;51.956;5.878;2022-08-19T13:40:50;38.98;25.33
72952;HTU21D;61102;51.956;5.878;2022-08-19T13:43:18;39.10;25.56
72952;HTU21D;61102;51.956;5.878;2022-08-19T13:45:44;38.78;25.84
72952;HTU21D;61102;51.956;5.878;2022-08-19T13:48:10;38.18;26.32
72952;HTU21D;61102;51.956;5.878;2022-08-19T13:50:42;37.66;27.04
72952;HTU21D;61102;51.956;5.878;2022-08-19T13:53:09;37.49;27.36
72952;HTU21D;61102;51.956;5.878;2022-08-19T13:55:41;37.71;27.09
72952;HTU21D;61102;51.956;5.878;2022-08-19T13:58:08;37.85;27.10
72952;HTU21D;61102;51.956;5.878;2022-08-19T14:00:37;38.01;27.12
72952;HTU21D;61102;51.956;5.878;2022-08-19T14:03:04;38.39;26.51
72952;HTU21D;61102;51.956;5.878;2022-08-19T14:05:30;38.39;26.57
72952;HTU21D;61102;51.956;5.878;2022-08-19T14:07:56;38.21;25.93
72952;HTU21D;61102;51.956;5.878;2022-08-19T14:10:23;37.10;28.05
72952;HTU21D;61102;51.956;5.878;2022-08-19T14:12:53;36.28;29.65
72952;HTU21D;61102;51.956;5.878;2022-08-19T14:15:21;35.69;30.35
72952;HTU21D;61102;51.956;5.878;2022-08-19T14:17:47;35.26;31.06
72952;HTU21D;61102;51.956;5.878;2022-08-19T14:20:15;34.83;31.99
72952;HTU21D;61102;51.956;5.878;2022-08-19T14:22:41;34.77;31.93
72952;HTU21D;61102;51.956;5.878;2022-08-19T14:25:09;34.12;33.24
72952;HTU21D;61102;51.956;5.878;2022-08-19T14:27:37;33.76;34.08
72952;HTU21D;61102;51.956;5.878;2022-08-19T14:30:07;33.51;34.64
72952;HTU21D;61102;51.956;5.878;2022-08-19T14:32:34;33.31;35.08
72952;HTU21D;61102;51.956;5.878;2022-08-19T14:35:01;33.18;35.39
72952;HTU21D;61102;51.956;5.878;2022-08-19T14:37:27;32.98;35.71
72952;HTU21D;61102;51.956;5.878;2022-08-19T14:39:53;32.81;36.09
72952;HTU21D;61102;51.956;5.878;2022-08-19T14:42:19;32.69;36.33
72952;HTU21D;61102;51.956;5.878;2022-08-19T14:44:46;32.47;36.75
72952;HTU21D;61102;51.956;5.878;2022-08-19T14:47:12;32.31;37.14
72952;HTU21D;61102;51.956;5.878;2022-08-19T14:49:38;32.15;37.54
72952;HTU21D;61102;51.956;5.878;2022-08-19T14:52:05;32.05;37.74
72952;HTU21D;61102;51.956;5.878;2022-08-19T14:54:32;32.41;36.99
72952;HTU21D;61102;51.956;5.878;2022-08-19T14:56:58;32.08;37.57
72952;HTU21D;61102;51.956;5.878;2022-08-19T14:59:25;31.87;38.05
72952;HTU21D;61102;51.956;5.878;2022-08-19T15:01:51;31.66;38.54
72952;HTU21D;61102;51.956;5.878;2022-08-19T15:04:17;31.57;38.68
72952;HTU21D;61102;51.956;5.878;2022-08-19T15:06:43;31.46;38.76
72952;HTU21D;61102;51.956;5.878;2022-08-19T15:09:09;31.33;38.88
72952;HTU21D;61102;51.956;5.878;2022-08-19T15:11:36;31.11;39.40
72952;HTU21D;61102;51.956;5.878;2022-08-19T15:14:03;30.98;39.77
72952;HTU21D;61102;51.956;5.878;2022-08-19T15:16:31;30.83;40.06
72952;HTU21D;61102;51.956;5.878;2022-08-19T15:18:58;30.76;40.34
72952;HTU21D;61102;51.956;5.878;2022-08-19T15:21:26;30.70;40.78
72952;HTU21D;61102;51.956;5.878;2022-08-19T15:23:54;30.57;41.25
72952;HTU21D;61102;51.956;5.878;2022-08-19T15:26:21;30.42;41.57